createdAt,value
2018-09-26T00:00:39.268Z,1004.50
2018-09-26T00:01:39.201Z,1004.41
2018-09-26T00:02:39.155Z,1004.41
2018-09-26T00:03:39.117Z,1004.35
2018-09-26T00:04:39.072Z,1004.36
2018-09-26T00:05:39.043Z,1004.45
2018-09-26T00:06:38.988Z,1004.42
2018-09-26T00:07:38.926Z,1004.39
2018-09-26T00:08:38.893Z,1004.35
2018-09-26T00:09:38.891Z,1004.35
2018-09-26T00:10:38.799Z,1004.40
2018-09-26T00:11:38.751Z,1004.44
2018-09-26T00:12:38.721Z,1004.49
2018-09-26T00:13:38.670Z,1004.52
2018-09-26T00:14:38.628Z,1004.50
2018-09-26T00:15:38.583Z,1004.48
2018-09-26T00:16:38.635Z,1004.49
2018-09-26T00:17:38.506Z,1004.49
2018-09-26T00:18:38.448Z,1004.56
2018-09-26T00:19:38.398Z,1004.61
2018-09-26T00:20:38.359Z,1004.62
2018-09-26T00:21:38.475Z,1004.61
2018-09-26T00:22:38.312Z,1004.64
2018-09-26T00:23:38.401Z,1004.59
2018-09-26T00:24:38.221Z,1004.63
2018-09-26T00:25:38.239Z,1004.62
2018-09-26T00:26:38.191Z,1004.61
2018-09-26T00:27:38.054Z,1004.61
2018-09-26T00:28:38.019Z,1004.58
2018-09-26T00:29:38.079Z,1004.56
2018-09-26T00:30:38.103Z,1004.59
2018-09-26T00:31:37.931Z,1004.48
2018-09-26T00:32:37.880Z,1004.47
2018-09-26T00:33:37.924Z,1004.47
2018-09-26T00:34:37.779Z,1004.46
2018-09-26T00:35:38.058Z,1004.52
2018-09-26T00:36:37.665Z,1004.53
2018-09-26T00:37:37.614Z,1004.53
2018-09-26T00:38:37.563Z,1004.57
2018-09-26T00:39:37.501Z,1004.58
2018-09-26T00:40:37.448Z,1004.58
2018-09-26T00:41:37.422Z,1004.58
2018-09-26T00:42:37.369Z,1004.58
2018-09-26T00:43:37.318Z,1004.57
2018-09-26T00:44:37.269Z,1004.51
2018-09-26T00:45:37.243Z,1004.50
2018-09-26T00:46:37.177Z,1004.49
2018-09-26T00:47:37.145Z,1004.49
2018-09-26T00:48:37.124Z,1004.51
2018-09-26T00:49:37.055Z,1004.51
2018-09-26T00:50:37.018Z,1004.48
2018-09-26T00:51:36.970Z,1004.55
2018-09-26T00:52:36.916Z,1004.57
2018-09-26T00:53:36.876Z,1004.54
2018-09-26T00:54:36.843Z,1004.58
2018-09-26T00:55:36.790Z,1004.55
2018-09-26T00:56:36.813Z,1004.56
2018-09-26T00:57:36.686Z,1004.53
2018-09-26T00:58:36.641Z,1004.51
2018-09-26T00:59:36.601Z,1004.47
2018-09-26T01:00:36.554Z,1004.40
2018-09-26T01:01:36.496Z,1004.40
2018-09-26T01:02:36.466Z,1004.33
2018-09-26T01:03:36.429Z,1004.32
2018-09-26T01:04:36.460Z,1004.30
2018-09-26T01:05:36.363Z,1004.31
2018-09-26T01:06:36.286Z,1004.32
2018-09-26T01:07:36.282Z,1004.30
2018-09-26T01:08:36.188Z,1004.29
2018-09-26T01:09:36.141Z,1004.25
2018-09-26T01:10:36.094Z,1004.25
2018-09-26T01:11:36.074Z,1004.27
2018-09-26T01:12:35.999Z,1004.26
2018-09-26T01:13:35.947Z,1004.29
2018-09-26T01:14:35.908Z,1004.30
2018-09-26T01:15:35.882Z,1004.29
2018-09-26T01:16:35.862Z,1004.32
2018-09-26T01:17:35.776Z,1004.33
2018-09-26T01:18:35.744Z,1004.31
2018-09-26T01:19:35.680Z,1004.30
2018-09-26T01:20:35.642Z,1004.31
2018-09-26T01:21:35.593Z,1004.35
2018-09-26T01:22:35.553Z,1004.35
2018-09-26T01:23:35.506Z,1004.36
2018-09-26T01:24:35.458Z,1004.39
2018-09-26T01:25:35.429Z,1004.36
2018-09-26T01:26:35.407Z,1004.34
2018-09-26T01:27:35.327Z,1004.29
2018-09-26T01:28:35.305Z,1004.27
2018-09-26T01:29:35.238Z,1004.27
2018-09-26T01:30:35.184Z,1004.26
2018-09-26T01:31:35.161Z,1004.23
2018-09-26T01:32:35.125Z,1004.22
2018-09-26T01:33:35.095Z,1004.17
2018-09-26T01:34:35.006Z,1004.23
2018-09-26T01:35:34.991Z,1004.25
2018-09-26T01:36:34.942Z,1004.24
2018-09-26T01:37:34.881Z,1004.24
2018-09-26T01:38:34.861Z,1004.25
2018-09-26T01:39:34.818Z,1004.23
2018-09-26T01:40:34.743Z,1004.21
2018-09-26T01:41:34.736Z,1004.19
2018-09-26T01:42:34.651Z,1004.22
2018-09-26T01:43:34.611Z,1004.22
2018-09-26T01:44:34.552Z,1004.20
2018-09-26T01:45:34.525Z,1004.17
2018-09-26T01:46:34.489Z,1004.18
2018-09-26T01:47:34.444Z,1004.13
2018-09-26T01:48:34.381Z,1004.12
2018-09-26T01:49:34.346Z,1004.06
2018-09-26T01:50:34.307Z,1004.08
2018-09-26T01:51:34.265Z,1004.09
2018-09-26T01:52:34.202Z,1004.10
2018-09-26T01:53:34.157Z,1004.09
2018-09-26T01:54:34.133Z,1004.04
2018-09-26T01:55:34.065Z,1004.01
2018-09-26T01:56:34.016Z,1003.99
2018-09-26T01:57:33.978Z,1003.98
2018-09-26T01:58:33.942Z,1003.99
2018-09-26T01:59:33.914Z,1003.97
2018-09-26T02:00:33.840Z,1003.98
2018-09-26T02:01:33.833Z,1003.93
2018-09-26T02:02:33.754Z,1003.92
2018-09-26T02:03:33.766Z,1003.90
2018-09-26T02:04:33.683Z,1003.90
2018-09-26T02:05:33.621Z,1003.88
2018-09-26T02:06:33.620Z,1003.92
2018-09-26T02:07:33.521Z,1003.86
2018-09-26T02:08:33.474Z,1003.84
2018-09-26T02:09:33.423Z,1003.85
2018-09-26T02:10:33.405Z,1003.77
2018-09-26T02:11:33.389Z,1003.78
2018-09-26T02:12:33.311Z,1003.76
2018-09-26T02:13:33.276Z,1003.69
2018-09-26T02:14:33.207Z,1003.65
2018-09-26T02:15:33.189Z,1003.69
2018-09-26T02:16:33.187Z,1003.67
2018-09-26T02:17:33.083Z,1003.69
2018-09-26T02:18:33.026Z,1003.69
2018-09-26T02:19:33.014Z,1003.74
2018-09-26T02:20:32.940Z,1003.73
2018-09-26T02:21:32.914Z,1003.73
2018-09-26T02:22:32.850Z,1003.70
2018-09-26T02:23:32.832Z,1003.72
2018-09-26T02:24:32.815Z,1003.72
2018-09-26T02:25:32.748Z,1003.72
2018-09-26T02:26:32.683Z,1003.64
2018-09-26T02:27:32.616Z,1003.61
2018-09-26T02:28:32.581Z,1003.55
2018-09-26T02:29:32.519Z,1003.54
2018-09-26T02:30:32.481Z,1003.53
2018-09-26T02:31:32.436Z,1003.51
2018-09-26T02:32:32.424Z,1003.48
2018-09-26T02:33:32.365Z,1003.44
2018-09-26T02:34:32.330Z,1003.46
2018-09-26T02:35:32.263Z,1003.43
2018-09-26T02:36:32.210Z,1003.41
2018-09-26T02:37:32.172Z,1003.41
2018-09-26T02:38:32.117Z,1003.34
2018-09-26T02:39:32.066Z,1003.35
2018-09-26T02:40:32.033Z,1003.31
2018-09-26T02:41:31.997Z,1003.30
2018-09-26T02:42:31.941Z,1003.31
2018-09-26T02:43:31.880Z,1003.33
2018-09-26T02:44:31.844Z,1003.33
2018-09-26T02:45:31.838Z,1003.30
2018-09-26T02:46:31.776Z,1003.31
2018-09-26T02:47:31.724Z,1003.27
2018-09-26T02:48:31.672Z,1003.28
2018-09-26T02:49:31.609Z,1003.31
2018-09-26T02:50:31.576Z,1003.25
2018-09-26T02:51:31.533Z,1003.28
2018-09-26T02:52:31.489Z,1003.28
2018-09-26T02:53:31.441Z,1003.27
2018-09-26T02:54:32.455Z,1003.27
2018-09-26T02:55:31.382Z,1003.34
2018-09-26T02:56:31.296Z,1003.32
2018-09-26T02:57:31.286Z,1003.39
2018-09-26T02:58:31.220Z,1003.36
2018-09-26T02:59:31.176Z,1003.39
2018-09-26T03:00:31.133Z,1003.41
2018-09-26T03:01:31.073Z,1003.38
2018-09-26T03:02:31.058Z,1003.37
2018-09-26T03:03:30.979Z,1003.32
2018-09-26T03:04:30.943Z,1003.35
2018-09-26T03:05:30.959Z,1003.29
2018-09-26T03:06:30.848Z,1003.32
2018-09-26T03:07:30.798Z,1003.33
2018-09-26T03:08:30.764Z,1003.34
2018-09-26T03:09:30.727Z,1003.33
2018-09-26T03:10:30.657Z,1003.34
2018-09-26T03:11:30.628Z,1003.32
2018-09-26T03:12:30.599Z,1003.34
2018-09-26T03:13:30.540Z,1003.35
2018-09-26T03:14:30.494Z,1003.33
2018-09-26T03:15:30.451Z,1003.31
2018-09-26T03:16:30.445Z,1003.29
2018-09-26T03:17:30.383Z,1003.27
2018-09-26T03:18:30.417Z,1003.23
2018-09-26T03:19:30.261Z,1003.20
2018-09-26T03:20:30.270Z,1003.14
2018-09-26T03:21:30.163Z,1003.17
2018-09-26T03:22:30.121Z,1003.17
2018-09-26T03:23:30.091Z,1003.16
2018-09-26T03:24:30.097Z,1003.15
2018-09-26T03:25:29.985Z,1003.18
2018-09-26T03:26:29.956Z,1003.13
2018-09-26T03:27:29.919Z,1003.13
2018-09-26T03:28:29.857Z,1003.08
2018-09-26T03:29:29.814Z,1003.09
2018-09-26T03:30:29.787Z,1003.11
2018-09-26T03:31:29.745Z,1003.14
2018-09-26T03:32:29.674Z,1003.08
2018-09-26T03:33:29.654Z,1003.08
2018-09-26T03:34:29.598Z,1003.13
2018-09-26T03:35:29.568Z,1003.10
2018-09-26T03:36:29.534Z,1003.10
2018-09-26T03:37:29.497Z,1003.07
2018-09-26T03:38:29.428Z,1003.07
2018-09-26T03:39:29.346Z,1003.09
2018-09-26T03:40:29.302Z,1003.09
2018-09-26T03:41:29.267Z,1003.11
2018-09-26T03:42:29.249Z,1003.11
2018-09-26T03:43:29.161Z,1003.08
2018-09-26T03:44:29.153Z,1003.10
2018-09-26T03:45:29.139Z,1003.09
2018-09-26T03:46:29.030Z,1003.10
2018-09-26T03:47:28.984Z,1003.08
2018-09-26T03:48:28.941Z,1002.99
2018-09-26T03:49:28.936Z,1003.05
2018-09-26T03:50:28.870Z,1003.08
2018-09-26T03:51:28.805Z,1003.11
2018-09-26T03:52:28.764Z,1003.14
2018-09-26T03:53:28.857Z,1003.12
2018-09-26T03:54:28.669Z,1003.05
2018-09-26T03:55:28.634Z,1002.98
2018-09-26T03:56:28.566Z,1002.99
2018-09-26T03:57:28.578Z,1003.02
2018-09-26T03:58:28.607Z,1003.03
2018-09-26T03:59:28.535Z,1003.01
2018-09-26T04:00:28.393Z,1003.07
2018-09-26T04:01:28.453Z,1003.07
2018-09-26T04:02:28.457Z,1003.07
2018-09-26T04:03:28.262Z,1003.10
2018-09-26T04:04:28.224Z,1003.08
2018-09-26T04:05:28.176Z,1003.06
2018-09-26T04:06:28.143Z,1003.11
2018-09-26T04:07:28.080Z,1003.06
2018-09-26T04:08:28.091Z,1003.09
2018-09-26T04:09:28.003Z,1003.07
2018-09-26T04:10:27.950Z,1003.10
2018-09-26T04:11:27.918Z,1003.11
2018-09-26T04:12:27.906Z,1003.09
2018-09-26T04:13:27.874Z,1003.10
2018-09-26T04:14:28.883Z,1003.13
2018-09-26T04:15:27.818Z,1003.16
2018-09-26T04:16:27.673Z,1003.14
2018-09-26T04:17:27.629Z,1003.15
2018-09-26T04:18:27.596Z,1003.14
2018-09-26T04:19:27.533Z,1003.10
2018-09-26T04:20:27.564Z,1003.06
2018-09-26T04:21:27.670Z,1003.01
2018-09-26T04:22:27.400Z,1002.98
2018-09-26T04:23:27.383Z,1002.96
2018-09-26T04:24:27.312Z,1002.96
2018-09-26T04:25:27.272Z,1002.98
2018-09-26T04:26:27.360Z,1003.02
2018-09-26T04:27:27.366Z,1003.02
2018-09-26T04:28:27.133Z,1002.98
2018-09-26T04:29:27.094Z,1002.95
2018-09-26T04:30:27.054Z,1002.93
2018-09-26T04:31:27.000Z,1002.92
2018-09-26T04:32:26.990Z,1002.92
2018-09-26T04:33:26.992Z,1002.95
2018-09-26T04:34:26.889Z,1002.95
2018-09-26T04:35:26.816Z,1002.95
2018-09-26T04:36:26.767Z,1002.92
2018-09-26T04:37:26.731Z,1002.93
2018-09-26T04:38:26.723Z,1002.92
2018-09-26T04:39:26.679Z,1002.96
2018-09-26T04:40:26.575Z,1002.97
2018-09-26T04:41:26.538Z,1003.04
2018-09-26T04:42:26.605Z,1003.01
2018-09-26T04:43:26.534Z,1003.03
2018-09-26T04:44:26.410Z,1002.98
2018-09-26T04:45:26.353Z,1002.99
2018-09-26T04:46:26.308Z,1003.03
2018-09-26T04:47:26.299Z,1003.01
2018-09-26T04:48:26.236Z,1002.97
2018-09-26T04:49:26.201Z,1003.00
2018-09-26T04:50:26.130Z,1003.06
2018-09-26T04:51:26.083Z,1003.08
2018-09-26T04:52:26.044Z,1003.14
2018-09-26T04:53:25.992Z,1003.17
2018-09-26T04:54:25.970Z,1003.20
2018-09-26T04:55:25.934Z,1003.22
2018-09-26T04:56:25.858Z,1003.25
2018-09-26T04:57:25.826Z,1003.25
2018-09-26T04:58:25.766Z,1003.29
2018-09-26T04:59:25.727Z,1003.30
2018-09-26T05:00:25.696Z,1003.33
2018-09-26T05:01:25.645Z,1003.31
2018-09-26T05:02:25.603Z,1003.29
2018-09-26T05:03:25.549Z,1003.22
2018-09-26T05:04:25.544Z,1003.09
2018-09-26T05:05:25.488Z,1003.03
2018-09-26T05:06:25.407Z,1003.00
2018-09-26T05:07:25.382Z,1002.96
2018-09-26T05:08:25.379Z,1002.99
2018-09-26T05:09:25.272Z,1002.95
2018-09-26T05:10:25.262Z,1002.97
2018-09-26T05:11:25.197Z,1002.99
2018-09-26T05:12:25.165Z,1003.05
2018-09-26T05:13:25.116Z,1003.11
2018-09-26T05:14:25.099Z,1003.14
2018-09-26T05:15:24.997Z,1003.16
2018-09-26T05:16:24.975Z,1003.22
2018-09-26T05:17:24.909Z,1003.22
2018-09-26T05:18:24.881Z,1003.18
2018-09-26T05:19:24.840Z,1003.16
2018-09-26T05:20:24.793Z,1003.11
2018-09-26T05:21:24.741Z,1003.02
2018-09-26T05:22:24.685Z,1002.94
2018-09-26T05:23:24.652Z,1003.02
2018-09-26T05:24:24.626Z,1002.99
2018-09-26T05:25:24.575Z,1002.96
2018-09-26T05:26:24.585Z,1003.00
2018-09-26T05:27:24.474Z,1002.99
2018-09-26T05:28:24.416Z,1003.00
2018-09-26T05:29:24.370Z,1003.04
2018-09-26T05:30:24.356Z,1003.04
2018-09-26T05:31:24.276Z,1003.08
2018-09-26T05:32:24.235Z,1003.04
2018-09-26T05:33:24.201Z,1003.00
2018-09-26T05:34:24.148Z,1002.97
2018-09-26T05:35:24.106Z,1002.96
2018-09-26T05:36:24.070Z,1002.96
2018-09-26T05:37:24.029Z,1002.96
2018-09-26T05:38:23.991Z,1002.88
2018-09-26T05:39:23.934Z,1002.97
2018-09-26T05:40:23.913Z,1002.93
2018-09-26T05:41:23.836Z,1002.90
2018-09-26T05:42:23.800Z,1002.89
2018-09-26T05:43:23.733Z,1002.96
2018-09-26T05:44:23.712Z,1002.94
2018-09-26T05:45:23.645Z,1002.88
2018-09-26T05:46:23.605Z,1002.87
2018-09-26T05:47:23.581Z,1002.82
2018-09-26T05:48:23.547Z,1002.81
2018-09-26T05:49:23.460Z,1002.79
2018-09-26T05:50:23.454Z,1002.76
2018-09-26T05:51:23.386Z,1002.75
2018-09-26T05:52:23.412Z,1002.79
2018-09-26T05:53:23.295Z,1002.77
2018-09-26T05:54:23.245Z,1002.81
2018-09-26T05:55:23.205Z,1002.77
2018-09-26T05:56:23.163Z,1002.80
2018-09-26T05:57:23.132Z,1002.78
2018-09-26T05:58:23.056Z,1002.71
2018-09-26T05:59:23.023Z,1002.73
2018-09-26T06:00:23.012Z,1002.75
2018-09-26T06:01:22.963Z,1002.76
2018-09-26T06:02:22.887Z,1002.75
2018-09-26T06:03:22.834Z,1002.74
2018-09-26T06:04:22.814Z,1002.72
2018-09-26T06:05:22.784Z,1002.69
2018-09-26T06:06:22.740Z,1002.63
2018-09-26T06:07:22.677Z,1002.60
2018-09-26T06:08:22.649Z,1002.59
2018-09-26T06:09:22.579Z,1002.56
2018-09-26T06:10:22.532Z,1002.59
2018-09-26T06:11:22.566Z,1002.62
2018-09-26T06:12:22.445Z,1002.63
2018-09-26T06:13:22.413Z,1002.65
2018-09-26T06:14:22.347Z,1002.72
2018-09-26T06:15:22.316Z,1002.71
2018-09-26T06:16:22.268Z,1002.62
2018-09-26T06:17:22.225Z,1002.63
2018-09-26T06:18:22.184Z,1002.59
2018-09-26T06:19:22.143Z,1002.59
2018-09-26T06:20:22.115Z,1002.57
2018-09-26T06:21:22.061Z,1002.57
2018-09-26T06:22:22.026Z,1002.54
2018-09-26T06:23:21.959Z,1002.53
2018-09-26T06:24:21.916Z,1002.50
2018-09-26T06:25:21.901Z,1002.46
2018-09-26T06:26:21.835Z,1002.48
2018-09-26T06:27:21.794Z,1002.48
2018-09-26T06:28:21.788Z,1002.52
2018-09-26T06:29:21.717Z,1002.54
2018-09-26T06:30:21.671Z,1002.56
2018-09-26T06:31:21.634Z,1002.64
2018-09-26T06:32:21.560Z,1002.62
2018-09-26T06:33:21.519Z,1002.63
2018-09-26T06:34:21.482Z,1002.60
2018-09-26T06:35:21.434Z,1002.56
2018-09-26T06:36:21.383Z,1002.52
2018-09-26T06:37:21.356Z,1002.49
2018-09-26T06:38:21.305Z,1002.44
2018-09-26T06:39:21.284Z,1002.44
2018-09-26T06:40:21.241Z,1002.45
2018-09-26T06:41:21.171Z,1002.42
2018-09-26T06:42:21.157Z,1002.34
2018-09-26T06:43:21.125Z,1002.38
2018-09-26T06:44:21.050Z,1002.36
2018-09-26T06:45:21.028Z,1002.33
2018-09-26T06:46:20.953Z,1002.32
2018-09-26T06:47:20.921Z,1002.36
2018-09-26T06:48:20.897Z,1002.36
2018-09-26T06:49:20.826Z,1002.36
2018-09-26T06:50:20.788Z,1002.38
2018-09-26T06:51:20.744Z,1002.40
2018-09-26T06:52:20.715Z,1002.40
2018-09-26T06:53:20.642Z,1002.40
2018-09-26T06:54:20.631Z,1002.43
2018-09-26T06:55:20.582Z,1002.43
2018-09-26T06:56:20.534Z,1002.41
2018-09-26T06:57:20.497Z,1002.38
2018-09-26T06:58:20.447Z,1002.36
2018-09-26T06:59:20.429Z,1002.30
2018-09-26T07:00:20.395Z,1002.34
2018-09-26T07:01:20.320Z,1002.31
2018-09-26T07:02:20.276Z,1002.27
2018-09-26T07:03:20.233Z,1002.33
2018-09-26T07:04:20.213Z,1002.33
2018-09-26T07:05:20.157Z,1002.35
2018-09-26T07:06:20.126Z,1002.38
2018-09-26T07:07:20.082Z,1002.40
2018-09-26T07:08:20.048Z,1002.39
2018-09-26T07:09:19.984Z,1002.45
2018-09-26T07:10:19.959Z,1002.48
2018-09-26T07:11:19.929Z,1002.50
2018-09-26T07:12:20.018Z,1002.49
2018-09-26T07:13:19.833Z,1002.51
2018-09-26T07:14:19.820Z,1002.53
2018-09-26T07:15:19.771Z,1002.47
2018-09-26T07:16:19.733Z,1002.49
2018-09-26T07:17:19.717Z,1002.48
2018-09-26T07:18:19.637Z,1002.49
2018-09-26T07:19:19.639Z,1002.48
2018-09-26T07:20:19.556Z,1002.49
2018-09-26T07:21:19.523Z,1002.47
2018-09-26T07:22:19.512Z,1002.45
2018-09-26T07:23:19.494Z,1002.42
2018-09-26T07:24:19.443Z,1002.43
2018-09-26T07:25:19.376Z,1002.45
2018-09-26T07:26:19.362Z,1002.48
2018-09-26T07:27:19.335Z,1002.47
2018-09-26T07:28:19.258Z,1002.47
2018-09-26T07:29:19.240Z,1002.49
2018-09-26T07:30:19.190Z,1002.49
2018-09-26T07:31:19.178Z,1002.50
2018-09-26T07:32:19.167Z,1002.50
2018-09-26T07:33:19.097Z,1002.52
2018-09-26T07:34:19.032Z,1002.55
2018-09-26T07:35:19.008Z,1002.56
2018-09-26T07:36:18.954Z,1002.54
2018-09-26T07:37:18.929Z,1002.55
2018-09-26T07:38:18.911Z,1002.62
2018-09-26T07:39:18.853Z,1002.59
2018-09-26T07:40:18.802Z,1002.55
2018-09-26T07:41:18.776Z,1002.55
2018-09-26T07:42:18.735Z,1002.56
2018-09-26T07:43:18.692Z,1002.49
2018-09-26T07:44:18.756Z,1002.55
2018-09-26T07:45:18.631Z,1002.52
2018-09-26T07:46:18.585Z,1002.48
2018-09-26T07:47:18.552Z,1002.46
2018-09-26T07:48:18.501Z,1002.43
2018-09-26T07:49:18.493Z,1002.47
2018-09-26T07:50:18.420Z,1002.44
2018-09-26T07:51:18.404Z,1002.47
2018-09-26T07:52:18.341Z,1002.47
2018-09-26T07:53:18.301Z,1002.46
2018-09-26T07:54:18.267Z,1002.46
2018-09-26T07:55:18.226Z,1002.49
2018-09-26T07:56:18.204Z,1002.53
2018-09-26T07:57:18.180Z,1002.53
2018-09-26T07:58:18.129Z,1002.56
2018-09-26T07:59:18.095Z,1002.51
2018-09-26T08:00:18.045Z,1002.54
2018-09-26T08:01:18.044Z,1002.57
2018-09-26T08:02:17.974Z,1002.53
2018-09-26T08:03:17.962Z,1002.51
2018-09-26T08:04:17.899Z,1002.50
2018-09-26T08:05:17.882Z,1002.46
2018-09-26T08:06:17.847Z,1002.47
2018-09-26T08:07:17.816Z,1002.49
2018-09-26T08:08:17.756Z,1002.52
2018-09-26T08:09:17.725Z,1002.55
2018-09-26T08:10:17.707Z,1002.54
2018-09-26T08:11:18.330Z,1002.51
2018-09-26T08:12:17.612Z,1002.53
2018-09-26T08:13:17.573Z,1002.52
2018-09-26T08:14:17.528Z,1002.53
2018-09-26T08:15:17.493Z,1002.60
2018-09-26T08:16:17.473Z,1002.55
2018-09-26T08:17:17.444Z,1002.53
2018-09-26T08:18:17.497Z,1002.54
2018-09-26T08:19:17.353Z,1002.59
2018-09-26T08:20:17.335Z,1002.59
2018-09-26T08:21:17.309Z,1002.55
2018-09-26T08:22:17.246Z,1002.56
2018-09-26T08:23:17.232Z,1002.59
2018-09-26T08:24:17.279Z,1002.56
2018-09-26T08:25:17.139Z,1002.56
2018-09-26T08:26:17.100Z,1002.55
2018-09-26T08:27:17.062Z,1002.55
2018-09-26T08:28:17.029Z,1002.63
2018-09-26T08:29:17.000Z,1002.63
2018-09-26T08:30:16.974Z,1002.63
2018-09-26T08:31:16.932Z,1002.58
2018-09-26T08:32:16.907Z,1002.58
2018-09-26T08:33:16.872Z,1002.60
2018-09-26T08:34:16.816Z,1002.57
2018-09-26T08:35:16.814Z,1002.60
2018-09-26T08:36:16.775Z,1002.54
2018-09-26T08:37:16.706Z,1002.60
2018-09-26T08:38:16.663Z,1002.58
2018-09-26T08:39:16.629Z,1002.59
2018-09-26T08:40:16.629Z,1002.54
2018-09-26T08:41:16.582Z,1002.51
2018-09-26T08:42:16.554Z,1002.52
2018-09-26T08:43:16.500Z,1002.54
2018-09-26T08:44:16.548Z,1002.53
2018-09-26T08:45:16.420Z,1002.48
2018-09-26T08:46:16.389Z,1002.52
2018-09-26T08:47:16.359Z,1002.45
2018-09-26T08:48:16.314Z,1002.45
2018-09-26T08:49:16.280Z,1002.48
2018-09-26T08:50:16.277Z,1002.46
2018-09-26T08:51:16.235Z,1002.48
2018-09-26T08:52:16.187Z,1002.44
2018-09-26T08:53:16.167Z,1002.43
2018-09-26T08:54:16.120Z,1002.48
2018-09-26T08:55:16.103Z,1002.43
2018-09-26T08:56:16.068Z,1002.40
2018-09-26T08:57:16.029Z,1002.48
2018-09-26T08:58:15.988Z,1002.47
2018-09-26T08:59:15.946Z,1002.40
2018-09-26T09:00:15.944Z,1002.41
2018-09-26T09:01:15.887Z,1002.39
2018-09-26T09:02:15.874Z,1002.39
2018-09-26T09:03:15.823Z,1002.37
2018-09-26T09:04:15.787Z,1002.38
2018-09-26T09:05:15.791Z,1002.41
2018-09-26T09:06:15.776Z,1002.37
2018-09-26T09:07:15.734Z,1002.30
2018-09-26T09:08:15.689Z,1002.31
2018-09-26T09:09:15.675Z,1002.31
2018-09-26T09:10:15.619Z,1002.34
2018-09-26T09:11:15.604Z,1002.36
2018-09-26T09:12:15.562Z,1002.36
2018-09-26T09:13:15.535Z,1002.31
2018-09-26T09:14:15.527Z,1002.32
2018-09-26T09:15:15.496Z,1002.36
2018-09-26T09:16:15.457Z,1002.31
2018-09-26T09:17:15.442Z,1002.37
2018-09-26T09:18:15.381Z,1002.29
2018-09-26T09:19:15.346Z,1002.24
2018-09-26T09:20:15.412Z,1002.25
2018-09-26T09:21:15.306Z,1002.22
2018-09-26T09:22:15.269Z,1002.24
2018-09-26T09:23:15.237Z,1002.24
2018-09-26T09:24:15.232Z,1002.22
2018-09-26T09:25:15.199Z,1002.26
2018-09-26T09:26:15.172Z,1002.22
2018-09-26T09:27:29.926Z,1002.25
2018-09-26T09:28:15.106Z,1002.24
2018-09-26T09:29:15.066Z,1002.17
2018-09-26T09:30:15.051Z,1002.19
2018-09-26T09:31:15.021Z,1002.17
2018-09-26T09:32:15.042Z,1002.12
2018-09-26T09:33:14.982Z,1002.11
2018-09-26T09:34:14.944Z,1002.12
2018-09-26T09:35:14.920Z,1002.19
2018-09-26T09:36:14.902Z,1002.13
2018-09-26T09:37:14.887Z,1002.10
2018-09-26T09:38:14.901Z,1002.08
2018-09-26T09:39:14.811Z,1002.04
2018-09-26T09:40:14.854Z,1002.10
2018-09-26T09:41:14.777Z,1002.01
2018-09-26T09:42:14.731Z,1002.05
2018-09-26T09:43:14.744Z,1002.01
2018-09-26T09:44:14.762Z,1002.03
2018-09-26T09:45:14.664Z,1001.97
2018-09-26T09:46:14.638Z,1001.93
2018-09-26T09:47:14.638Z,1001.90
2018-09-26T09:48:14.585Z,1001.96
2018-09-26T09:49:14.571Z,1001.96
2018-09-26T09:50:14.548Z,1001.93
2018-09-26T09:51:14.504Z,1001.93
2018-09-26T09:52:14.484Z,1001.95
2018-09-26T09:53:14.478Z,1001.96
2018-09-26T09:54:14.430Z,1001.94
2018-09-26T09:55:14.509Z,1001.94
2018-09-26T09:56:14.460Z,1001.86
2018-09-26T09:57:14.386Z,1001.91
2018-09-26T09:58:14.338Z,1001.90
2018-09-26T09:59:14.316Z,1001.91
2018-09-26T10:00:14.289Z,1001.91
2018-09-26T10:01:14.261Z,1001.89
2018-09-26T10:02:14.261Z,1001.87
2018-09-26T10:03:14.213Z,1001.86
2018-09-26T10:04:14.196Z,1001.88
2018-09-26T10:05:14.176Z,1001.84
2018-09-26T10:06:14.141Z,1001.92
2018-09-26T10:07:14.154Z,1001.89
2018-09-26T10:08:14.174Z,1001.95
2018-09-26T10:09:14.100Z,1001.95
2018-09-26T10:10:14.064Z,1001.89
2018-09-26T10:11:14.076Z,1001.91
2018-09-26T10:12:14.008Z,1001.91
2018-09-26T10:13:13.981Z,1001.90
2018-09-26T10:14:13.992Z,1001.94
2018-09-26T10:15:13.948Z,1001.90
2018-09-26T10:16:13.913Z,1001.93
2018-09-26T10:17:13.891Z,1001.86
2018-09-26T10:18:13.876Z,1001.83
2018-09-26T10:19:13.839Z,1001.89
2018-09-26T10:20:13.880Z,1001.94
2018-09-26T10:21:13.808Z,1001.89
2018-09-26T10:22:13.766Z,1001.87
2018-09-26T10:23:13.749Z,1001.85
2018-09-26T10:24:13.725Z,1001.83
2018-09-26T10:25:13.765Z,1001.82
2018-09-26T10:26:13.732Z,1001.78
2018-09-26T10:27:13.660Z,1001.82
2018-09-26T10:28:13.620Z,1001.85
2018-09-26T10:29:13.638Z,1001.77
2018-09-26T10:30:13.591Z,1001.78
2018-09-26T10:31:13.555Z,1001.77
2018-09-26T10:32:13.566Z,1001.74
2018-09-26T10:33:13.497Z,1001.75
2018-09-26T10:34:13.505Z,1001.74
2018-09-26T10:35:13.477Z,1001.71
2018-09-26T10:36:13.452Z,1001.66
2018-09-26T10:37:13.455Z,1001.67
2018-09-26T10:38:13.406Z,1001.71
2018-09-26T10:39:13.372Z,1001.65
2018-09-26T10:40:13.344Z,1001.67
2018-09-26T10:41:13.326Z,1001.66
2018-09-26T10:42:13.392Z,1001.64
2018-09-26T10:43:13.293Z,1001.62
2018-09-26T10:44:13.313Z,1001.57
2018-09-26T10:45:13.234Z,1001.58
2018-09-26T10:46:13.217Z,1001.58
2018-09-26T10:47:13.178Z,1001.56
2018-09-26T10:48:13.156Z,1001.56
2018-09-26T10:49:13.145Z,1001.52
2018-09-26T10:50:13.174Z,1001.49
2018-09-26T10:51:13.098Z,1001.53
2018-09-26T10:52:13.064Z,1001.44
2018-09-26T10:53:13.186Z,1001.41
2018-09-26T10:54:13.027Z,1001.42
2018-09-26T10:55:13.014Z,1001.42
2018-09-26T10:56:12.994Z,1001.43
2018-09-26T10:57:13.001Z,1001.39
2018-09-26T10:58:12.927Z,1001.35
2018-09-26T10:59:12.889Z,1001.37
2018-09-26T11:00:12.873Z,1001.38
2018-09-26T11:01:12.845Z,1001.32
2018-09-26T11:02:12.888Z,1001.27
2018-09-26T11:03:12.810Z,1001.25
2018-09-26T11:04:12.860Z,1001.26
2018-09-26T11:05:12.771Z,1001.28
2018-09-26T11:06:12.746Z,1001.24
2018-09-26T11:07:12.704Z,1001.20
2018-09-26T11:08:12.731Z,1001.16
2018-09-26T11:09:12.670Z,1001.16
2018-09-26T11:10:12.700Z,1001.24
2018-09-26T11:11:12.657Z,1001.12
2018-09-26T11:12:12.598Z,1001.15
2018-09-26T11:13:12.598Z,1001.16
2018-09-26T11:14:12.570Z,1001.17
2018-09-26T11:15:12.588Z,1001.16
2018-09-26T11:16:12.519Z,1001.08
2018-09-26T11:17:12.526Z,1001.15
2018-09-26T11:18:12.438Z,1001.16
2018-09-26T11:19:12.422Z,1001.12
2018-09-26T11:20:12.454Z,1001.08
2018-09-26T11:21:12.401Z,1001.08
2018-09-26T11:22:12.349Z,1001.04
2018-09-26T11:23:12.335Z,1001.02
2018-09-26T11:24:12.314Z,1001.00
2018-09-26T11:25:12.288Z,1001.03
2018-09-26T11:26:12.318Z,1001.03
2018-09-26T11:27:12.230Z,1001.03
2018-09-26T11:28:12.233Z,1001.00
2018-09-26T11:29:12.172Z,1000.99
2018-09-26T11:30:12.138Z,1000.95
2018-09-26T11:31:12.106Z,1000.97
2018-09-26T11:32:12.156Z,1000.98
2018-09-26T11:33:12.110Z,1000.97
2018-09-26T11:34:12.092Z,1000.96
2018-09-26T11:35:12.015Z,1000.97
2018-09-26T11:36:11.971Z,1000.90
2018-09-26T11:37:11.975Z,1001.01
2018-09-26T11:38:11.985Z,1000.91
2018-09-26T11:39:11.899Z,1001.02
2018-09-26T11:40:11.877Z,1000.97
2018-09-26T11:41:11.850Z,1000.94
2018-09-26T11:42:11.811Z,1001.03
2018-09-26T11:43:11.795Z,1001.02
2018-09-26T11:44:11.815Z,1000.96
2018-09-26T11:45:11.742Z,1000.94
2018-09-26T11:46:11.728Z,1000.95
2018-09-26T11:47:11.688Z,1000.93
2018-09-26T11:48:11.681Z,1000.87
2018-09-26T11:49:11.632Z,1000.92
2018-09-26T11:50:11.624Z,1000.87
2018-09-26T11:51:11.565Z,1000.86
2018-09-26T11:52:11.554Z,1000.79
2018-09-26T11:53:11.526Z,1000.78
2018-09-26T11:54:11.491Z,1000.77
2018-09-26T11:55:11.457Z,1000.74
2018-09-26T11:56:11.471Z,1000.72
2018-09-26T11:57:11.393Z,1000.68
2018-09-26T11:58:11.401Z,1000.70
2018-09-26T11:59:11.355Z,1000.71
2018-09-26T12:00:11.319Z,1000.71
2018-09-26T12:01:11.285Z,1000.72
2018-09-26T12:02:11.292Z,1000.70
2018-09-26T12:03:11.316Z,1000.67
2018-09-26T12:04:11.275Z,1000.65
2018-09-26T12:05:11.194Z,1000.68